sensor_id;sensor_type;location;lat;lon;timestamp;P1;durP1;ratioP1;P2;durP2;ratioP2
42714;SDS011;28351;51.480;5.706;2023-03-31T00:02:19;4.80;;;1.90;;
42714;SDS011;28351;51.480;5.706;2023-03-31T00:04:46;8.95;;;1.98;;
42714;SDS011;28351;51.480;5.706;2023-03-31T00:07:19;6.72;;;1.77;;
42714;SDS011;28351;51.480;5.706;2023-03-31T00:09:46;6.43;;;2.17;;
42714;SDS011;28351;51.480;5.706;2023-03-31T00:12:13;5.45;;;1.98;;
42714;SDS011;28351;51.480;5.706;2023-03-31T00:14:40;8.60;;;2.03;;
42714;SDS011;28351;51.480;5.706;2023-03-31T00:17:06;5.40;;;2.00;;
42714;SDS011;28351;51.480;5.706;2023-03-31T00:19:32;3.42;;;1.63;;
42714;SDS011;28351;51.480;5.706;2023-03-31T00:21:58;7.88;;;2.05;;
42714;SDS011;28351;51.480;5.706;2023-03-31T00:26:56;7.38;;;2.00;;
42714;SDS011;28351;51.480;5.706;2023-03-31T00:29:28;6.57;;;1.83;;
42714;SDS011;28351;51.480;5.706;2023-03-31T00:31:55;6.25;;;1.80;;
42714;SDS011;28351;51.480;5.706;2023-03-31T00:34:23;2.17;;;1.15;;
42714;SDS011;28351;51.480;5.706;2023-03-31T00:36:50;6.60;;;1.60;;
42714;SDS011;28351;51.480;5.706;2023-03-31T00:39:20;6.20;;;1.67;;
42714;SDS011;28351;51.480;5.706;2023-03-31T00:41:47;5.93;;;1.38;;
42714;SDS011;28351;51.480;5.706;2023-03-31T00:44:17;4.13;;;1.50;;
42714;SDS011;28351;51.480;5.706;2023-03-31T00:46:52;13.50;;;1.88;;
42714;SDS011;28351;51.480;5.706;2023-03-31T00:52:17;4.35;;;1.30;;
42714;SDS011;28351;51.480;5.706;2023-03-31T00:54:47;4.97;;;1.33;;
42714;SDS011;28351;51.480;5.706;2023-03-31T00:57:16;2.95;;;1.08;;
42714;SDS011;28351;51.480;5.706;2023-03-31T00:59:48;5.25;;;1.40;;
42714;SDS011;28351;51.480;5.706;2023-03-31T01:02:16;6.70;;;1.30;;
42714;SDS011;28351;51.480;5.706;2023-03-31T01:04:48;5.63;;;1.65;;
42714;SDS011;28351;51.480;5.706;2023-03-31T01:10:18;6.18;;;1.58;;
42714;SDS011;28351;51.480;5.706;2023-03-31T01:12:46;9.38;;;1.98;;
42714;SDS011;28351;51.480;5.706;2023-03-31T01:15:15;9.85;;;1.42;;
42714;SDS011;28351;51.480;5.706;2023-03-31T01:17:41;6.25;;;1.50;;
42714;SDS011;28351;51.480;5.706;2023-03-31T01:26:52;5.80;;;1.38;;
42714;SDS011;28351;51.480;5.706;2023-03-31T01:38:26;7.80;;;1.42;;
42714;SDS011;28351;51.480;5.706;2023-03-31T01:41:20;4.75;;;1.20;;
42714;SDS011;28351;51.480;5.706;2023-03-31T01:46:53;5.30;;;1.48;;
42714;SDS011;28351;51.480;5.706;2023-03-31T01:49:30;9.40;;;1.73;;
42714;SDS011;28351;51.480;5.706;2023-03-31T01:52:29;6.38;;;1.83;;
42714;SDS011;28351;51.480;5.706;2023-03-31T01:55:07;5.13;;;1.65;;
42714;SDS011;28351;51.480;5.706;2023-03-31T01:57:40;6.65;;;1.65;;
42714;SDS011;28351;51.480;5.706;2023-03-31T02:00:24;6.05;;;1.75;;
42714;SDS011;28351;51.480;5.706;2023-03-31T02:02:59;12.77;;;1.85;;
42714;SDS011;28351;51.480;5.706;2023-03-31T02:05:39;8.13;;;2.15;;
42714;SDS011;28351;51.480;5.706;2023-03-31T02:08:19;9.18;;;1.73;;
42714;SDS011;28351;51.480;5.706;2023-03-31T02:10:56;5.47;;;1.70;;
42714;SDS011;28351;51.480;5.706;2023-03-31T02:13:23;7.68;;;2.10;;
42714;SDS011;28351;51.480;5.706;2023-03-31T02:18:22;13.30;;;1.98;;
42714;SDS011;28351;51.480;5.706;2023-03-31T02:21:02;8.95;;;2.10;;
42714;SDS011;28351;51.480;5.706;2023-03-31T02:23:33;9.43;;;2.22;;
42714;SDS011;28351;51.480;5.706;2023-03-31T02:26:03;14.18;;;2.33;;
42714;SDS011;28351;51.480;5.706;2023-03-31T02:28:36;11.52;;;2.78;;
42714;SDS011;28351;51.480;5.706;2023-03-31T02:34:04;12.02;;;2.50;;
42714;SDS011;28351;51.480;5.706;2023-03-31T02:36:29;10.18;;;2.20;;
42714;SDS011;28351;51.480;5.706;2023-03-31T02:38:57;15.27;;;2.70;;
42714;SDS011;28351;51.480;5.706;2023-03-31T02:41:26;11.93;;;2.30;;
42714;SDS011;28351;51.480;5.706;2023-03-31T02:43:52;13.70;;;1.95;;
42714;SDS011;28351;51.480;5.706;2023-03-31T02:46:18;10.95;;;2.38;;
42714;SDS011;28351;51.480;5.706;2023-03-31T02:48:45;8.90;;;2.25;;
42714;SDS011;28351;51.480;5.706;2023-03-31T03:05:11;12.63;;;2.92;;
42714;SDS011;28351;51.480;5.706;2023-03-31T03:07:57;15.13;;;2.67;;
42714;SDS011;28351;51.480;5.706;2023-03-31T03:13:21;7.03;;;2.58;;
42714;SDS011;28351;51.480;5.706;2023-03-31T03:16:02;11.75;;;2.38;;
42714;SDS011;28351;51.480;5.706;2023-03-31T03:18:33;11.10;;;2.38;;
42714;SDS011;28351;51.480;5.706;2023-03-31T03:20:59;16.55;;;2.50;;
42714;SDS011;28351;51.480;5.706;2023-03-31T03:23:27;13.45;;;3.35;;
42714;SDS011;28351;51.480;5.706;2023-03-31T03:28:19;11.70;;;2.17;;
42714;SDS011;28351;51.480;5.706;2023-03-31T03:30:45;11.15;;;1.85;;
42714;SDS011;28351;51.480;5.706;2023-03-31T03:33:11;6.93;;;1.98;;
42714;SDS011;28351;51.480;5.706;2023-03-31T03:35:40;8.07;;;1.88;;
42714;SDS011;28351;51.480;5.706;2023-03-31T03:38:06;6.75;;;1.98;;
42714;SDS011;28351;51.480;5.706;2023-03-31T03:40:32;9.57;;;2.10;;
42714;SDS011;28351;51.480;5.706;2023-03-31T03:43:00;9.82;;;2.13;;
42714;SDS011;28351;51.480;5.706;2023-03-31T03:45:26;8.20;;;1.63;;
42714;SDS011;28351;51.480;5.706;2023-03-31T03:47:51;12.00;;;1.83;;
42714;SDS011;28351;51.480;5.706;2023-03-31T03:50:17;6.68;;;1.63;;
42714;SDS011;28351;51.480;5.706;2023-03-31T03:52:45;5.85;;;1.67;;
42714;SDS011;28351;51.480;5.706;2023-03-31T03:55:11;8.38;;;1.83;;
42714;SDS011;28351;51.480;5.706;2023-03-31T03:57:37;11.70;;;1.70;;
42714;SDS011;28351;51.480;5.706;2023-03-31T04:00:03;7.90;;;1.75;;
42714;SDS011;28351;51.480;5.706;2023-03-31T04:02:34;9.52;;;1.83;;
42714;SDS011;28351;51.480;5.706;2023-03-31T04:04:59;7.05;;;1.75;;
42714;SDS011;28351;51.480;5.706;2023-03-31T04:07:25;10.25;;;2.28;;
42714;SDS011;28351;51.480;5.706;2023-03-31T04:09:51;10.32;;;1.95;;
42714;SDS011;28351;51.480;5.706;2023-03-31T04:12:16;8.35;;;1.85;;
42714;SDS011;28351;51.480;5.706;2023-03-31T04:14:42;4.32;;;1.50;;
42714;SDS011;28351;51.480;5.706;2023-03-31T04:17:07;7.18;;;1.85;;
42714;SDS011;28351;51.480;5.706;2023-03-31T04:19:34;5.00;;;1.85;;
42714;SDS011;28351;51.480;5.706;2023-03-31T04:22:00;6.63;;;1.70;;
42714;SDS011;28351;51.480;5.706;2023-03-31T04:24:27;5.82;;;1.30;;
42714;SDS011;28351;51.480;5.706;2023-03-31T04:26:57;7.80;;;1.98;;
42714;SDS011;28351;51.480;5.706;2023-03-31T04:29:23;10.68;;;1.80;;
42714;SDS011;28351;51.480;5.706;2023-03-31T04:31:54;5.22;;;1.42;;
42714;SDS011;28351;51.480;5.706;2023-03-31T04:34:23;4.53;;;2.03;;
42714;SDS011;28351;51.480;5.706;2023-03-31T04:36:58;13.50;;;1.60;;
42714;SDS011;28351;51.480;5.706;2023-03-31T04:39:26;8.45;;;1.73;;
42714;SDS011;28351;51.480;5.706;2023-03-31T04:41:55;4.60;;;1.42;;
42714;SDS011;28351;51.480;5.706;2023-03-31T04:44:22;4.38;;;1.63;;
42714;SDS011;28351;51.480;5.706;2023-03-31T04:46:54;5.38;;;1.30;;
42714;SDS011;28351;51.480;5.706;2023-03-31T04:49:20;4.28;;;1.60;;
42714;SDS011;28351;51.480;5.706;2023-03-31T04:51:46;6.50;;;1.90;;
42714;SDS011;28351;51.480;5.706;2023-03-31T04:54:12;5.20;;;1.63;;
42714;SDS011;28351;51.480;5.706;2023-03-31T04:56:37;5.80;;;1.92;;
42714;SDS011;28351;51.480;5.706;2023-03-31T04:59:06;6.35;;;2.03;;
42714;SDS011;28351;51.480;5.706;2023-03-31T05:01:32;11.30;;;1.80;;
42714;SDS011;28351;51.480;5.706;2023-03-31T05:04:00;8.07;;;1.40;;
42714;SDS011;28351;51.480;5.706;2023-03-31T05:06:26;3.92;;;1.52;;
42714;SDS011;28351;51.480;5.706;2023-03-31T05:08:51;5.25;;;1.40;;
42714;SDS011;28351;51.480;5.706;2023-03-31T05:11:17;4.72;;;1.45;;
42714;SDS011;28351;51.480;5.706;2023-03-31T05:13:42;3.28;;;0.90;;
42714;SDS011;28351;51.480;5.706;2023-03-31T05:16:08;7.22;;;1.67;;
42714;SDS011;28351;51.480;5.706;2023-03-31T05:18:38;4.45;;;1.55;;
42714;SDS011;28351;51.480;5.706;2023-03-31T05:21:11;7.70;;;1.20;;
42714;SDS011;28351;51.480;5.706;2023-03-31T05:23:39;5.47;;;1.40;;
42714;SDS011;28351;51.480;5.706;2023-03-31T05:26:06;4.30;;;1.58;;
42714;SDS011;28351;51.480;5.706;2023-03-31T05:28:33;4.32;;;1.38;;
42714;SDS011;28351;51.480;5.706;2023-03-31T05:31:00;4.30;;;1.17;;
42714;SDS011;28351;51.480;5.706;2023-03-31T05:33:27;5.22;;;1.80;;
42714;SDS011;28351;51.480;5.706;2023-03-31T05:35:53;7.75;;;1.40;;
42714;SDS011;28351;51.480;5.706;2023-03-31T05:38:19;9.20;;;1.92;;
42714;SDS011;28351;51.480;5.706;2023-03-31T05:40:45;8.52;;;2.30;;
42714;SDS011;28351;51.480;5.706;2023-03-31T05:43:11;8.38;;;1.60;;
42714;SDS011;28351;51.480;5.706;2023-03-31T05:45:36;6.97;;;1.42;;
42714;SDS011;28351;51.480;5.706;2023-03-31T05:48:02;4.82;;;1.50;;
42714;SDS011;28351;51.480;5.706;2023-03-31T05:50:28;5.03;;;1.58;;
42714;SDS011;28351;51.480;5.706;2023-03-31T05:52:53;5.25;;;1.95;;
42714;SDS011;28351;51.480;5.706;2023-03-31T05:55:19;7.72;;;1.40;;
42714;SDS011;28351;51.480;5.706;2023-03-31T05:57:44;4.68;;;1.73;;
42714;SDS011;28351;51.480;5.706;2023-03-31T06:00:10;6.97;;;1.70;;
42714;SDS011;28351;51.480;5.706;2023-03-31T06:02:36;9.90;;;1.55;;
42714;SDS011;28351;51.480;5.706;2023-03-31T06:05:02;7.78;;;1.90;;
42714;SDS011;28351;51.480;5.706;2023-03-31T06:07:28;8.13;;;2.00;;
42714;SDS011;28351;51.480;5.706;2023-03-31T06:09:53;4.10;;;1.30;;
42714;SDS011;28351;51.480;5.706;2023-03-31T06:12:19;4.07;;;1.27;;
42714;SDS011;28351;51.480;5.706;2023-03-31T06:14:45;7.70;;;1.75;;
42714;SDS011;28351;51.480;5.706;2023-03-31T06:17:13;6.20;;;1.85;;
42714;SDS011;28351;51.480;5.706;2023-03-31T06:19:39;5.85;;;1.75;;
42714;SDS011;28351;51.480;5.706;2023-03-31T06:22:04;9.65;;;2.58;;
42714;SDS011;28351;51.480;5.706;2023-03-31T06:24:30;5.72;;;1.55;;
42714;SDS011;28351;51.480;5.706;2023-03-31T06:26:56;9.40;;;2.05;;
42714;SDS011;28351;51.480;5.706;2023-03-31T06:29:21;5.30;;;1.90;;
42714;SDS011;28351;51.480;5.706;2023-03-31T06:31:47;5.38;;;1.58;;
42714;SDS011;28351;51.480;5.706;2023-03-31T06:34:12;6.55;;;1.63;;
42714;SDS011;28351;51.480;5.706;2023-03-31T06:36:38;9.30;;;2.38;;
42714;SDS011;28351;51.480;5.706;2023-03-31T06:39:04;7.78;;;2.47;;
42714;SDS011;28351;51.480;5.706;2023-03-31T06:41:29;4.47;;;2.00;;
42714;SDS011;28351;51.480;5.706;2023-03-31T06:43:58;7.18;;;1.48;;
42714;SDS011;28351;51.480;5.706;2023-03-31T06:46:23;7.10;;;1.63;;
42714;SDS011;28351;51.480;5.706;2023-03-31T06:48:49;6.68;;;1.63;;
42714;SDS011;28351;51.480;5.706;2023-03-31T06:51:14;8.90;;;1.98;;
42714;SDS011;28351;51.480;5.706;2023-03-31T06:53:40;5.78;;;1.95;;
42714;SDS011;28351;51.480;5.706;2023-03-31T06:56:06;3.80;;;1.73;;
42714;SDS011;28351;51.480;5.706;2023-03-31T06:58:32;4.07;;;1.60;;
42714;SDS011;28351;51.480;5.706;2023-03-31T07:00:59;7.07;;;2.30;;
42714;SDS011;28351;51.480;5.706;2023-03-31T07:03:27;7.32;;;1.85;;
42714;SDS011;28351;51.480;5.706;2023-03-31T07:05:55;3.95;;;1.45;;
42714;SDS011;28351;51.480;5.706;2023-03-31T07:08:21;10.48;;;2.10;;
42714;SDS011;28351;51.480;5.706;2023-03-31T07:10:57;7.03;;;2.08;;
42714;SDS011;28351;51.480;5.706;2023-03-31T07:13:24;9.43;;;1.60;;
42714;SDS011;28351;51.480;5.706;2023-03-31T07:15:50;10.20;;;1.63;;
42714;SDS011;28351;51.480;5.706;2023-03-31T07:18:17;7.07;;;1.70;;
42714;SDS011;28351;51.480;5.706;2023-03-31T07:20:43;8.85;;;1.70;;
42714;SDS011;28351;51.480;5.706;2023-03-31T07:23:12;9.88;;;1.90;;
42714;SDS011;28351;51.480;5.706;2023-03-31T07:25:37;6.22;;;1.80;;
42714;SDS011;28351;51.480;5.706;2023-03-31T07:28:03;8.30;;;2.10;;
42714;SDS011;28351;51.480;5.706;2023-03-31T07:30:30;7.88;;;1.90;;
42714;SDS011;28351;51.480;5.706;2023-03-31T07:32:56;3.53;;;1.60;;
42714;SDS011;28351;51.480;5.706;2023-03-31T07:35:22;10.55;;;1.60;;
42714;SDS011;28351;51.480;5.706;2023-03-31T07:37:51;6.63;;;1.58;;
42714;SDS011;28351;51.480;5.706;2023-03-31T07:40:22;4.35;;;1.55;;
42714;SDS011;28351;51.480;5.706;2023-03-31T07:42:50;8.52;;;2.13;;
42714;SDS011;28351;51.480;5.706;2023-03-31T07:45:16;9.57;;;2.20;;
42714;SDS011;28351;51.480;5.706;2023-03-31T07:47:44;10.85;;;2.28;;
42714;SDS011;28351;51.480;5.706;2023-03-31T07:50:10;12.23;;;2.78;;
42714;SDS011;28351;51.480;5.706;2023-03-31T07:52:38;7.43;;;1.90;;
42714;SDS011;28351;51.480;5.706;2023-03-31T07:55:04;5.32;;;1.60;;
42714;SDS011;28351;51.480;5.706;2023-03-31T07:57:30;14.23;;;2.70;;
42714;SDS011;28351;51.480;5.706;2023-03-31T07:59:56;12.25;;;1.73;;
42714;SDS011;28351;51.480;5.706;2023-03-31T08:02:21;11.32;;;2.35;;
42714;SDS011;28351;51.480;5.706;2023-03-31T08:04:47;7.80;;;1.88;;
42714;SDS011;28351;51.480;5.706;2023-03-31T08:07:13;15.18;;;2.72;;
42714;SDS011;28351;51.480;5.706;2023-03-31T08:09:42;12.50;;;2.08;;
42714;SDS011;28351;51.480;5.706;2023-03-31T08:12:08;8.95;;;2.97;;
42714;SDS011;28351;51.480;5.706;2023-03-31T08:14:34;10.55;;;2.20;;
42714;SDS011;28351;51.480;5.706;2023-03-31T08:17:00;9.32;;;2.67;;
42714;SDS011;28351;51.480;5.706;2023-03-31T08:19:26;6.85;;;2.30;;
42714;SDS011;28351;51.480;5.706;2023-03-31T08:21:52;8.77;;;2.08;;
42714;SDS011;28351;51.480;5.706;2023-03-31T08:24:18;6.57;;;1.98;;
42714;SDS011;28351;51.480;5.706;2023-03-31T08:26:44;4.55;;;1.73;;
42714;SDS011;28351;51.480;5.706;2023-03-31T08:29:10;8.77;;;1.90;;
42714;SDS011;28351;51.480;5.706;2023-03-31T08:31:35;7.82;;;1.98;;
42714;SDS011;28351;51.480;5.706;2023-03-31T08:34:01;9.18;;;1.95;;
42714;SDS011;28351;51.480;5.706;2023-03-31T08:36:27;9.20;;;1.90;;
42714;SDS011;28351;51.480;5.706;2023-03-31T08:38:53;9.23;;;1.92;;
42714;SDS011;28351;51.480;5.706;2023-03-31T08:43:55;7.05;;;1.67;;
42714;SDS011;28351;51.480;5.706;2023-03-31T08:46:24;8.20;;;2.15;;
42714;SDS011;28351;51.480;5.706;2023-03-31T08:48:54;10.52;;;1.75;;
42714;SDS011;28351;51.480;5.706;2023-03-31T08:51:25;5.47;;;1.38;;
42714;SDS011;28351;51.480;5.706;2023-03-31T08:56:29;5.45;;;1.70;;
42714;SDS011;28351;51.480;5.706;2023-03-31T08:59:03;7.28;;;1.83;;
42714;SDS011;28351;51.480;5.706;2023-03-31T09:01:46;9.07;;;2.40;;
42714;SDS011;28351;51.480;5.706;2023-03-31T09:04:25;14.27;;;2.10;;
42714;SDS011;28351;51.480;5.706;2023-03-31T09:12:20;12.07;;;2.88;;
42714;SDS011;28351;51.480;5.706;2023-03-31T09:17:40;9.40;;;2.08;;
42714;SDS011;28351;51.480;5.706;2023-03-31T09:20:13;9.60;;;1.80;;
42714;SDS011;28351;51.480;5.706;2023-03-31T09:22:46;8.20;;;1.92;;
42714;SDS011;28351;51.480;5.706;2023-03-31T09:27:49;10.10;;;2.33;;
42714;SDS011;28351;51.480;5.706;2023-03-31T09:30:26;11.35;;;2.30;;
42714;SDS011;28351;51.480;5.706;2023-03-31T09:33:09;11.68;;;3.35;;
42714;SDS011;28351;51.480;5.706;2023-03-31T09:35:38;11.82;;;2.17;;
42714;SDS011;28351;51.480;5.706;2023-03-31T09:38:04;9.38;;;2.15;;
42714;SDS011;28351;51.480;5.706;2023-03-31T09:40:30;11.68;;;1.90;;
42714;SDS011;28351;51.480;5.706;2023-03-31T09:42:57;13.40;;;2.08;;
42714;SDS011;28351;51.480;5.706;2023-03-31T09:45:31;16.13;;;2.70;;
42714;SDS011;28351;51.480;5.706;2023-03-31T09:48:04;10.90;;;2.13;;
42714;SDS011;28351;51.480;5.706;2023-03-31T09:50:38;9.63;;;1.92;;
42714;SDS011;28351;51.480;5.706;2023-03-31T09:53:22;14.05;;;2.00;;
42714;SDS011;28351;51.480;5.706;2023-03-31T09:56:01;13.88;;;1.88;;
42714;SDS011;28351;51.480;5.706;2023-03-31T09:58:29;9.88;;;2.03;;
42714;SDS011;28351;51.480;5.706;2023-03-31T10:03:24;7.50;;;1.70;;
42714;SDS011;28351;51.480;5.706;2023-03-31T10:08:29;10.02;;;1.90;;
42714;SDS011;28351;51.480;5.706;2023-03-31T10:11:13;5.82;;;1.42;;
42714;SDS011;28351;51.480;5.706;2023-03-31T10:13:44;8.50;;;1.88;;
42714;SDS011;28351;51.480;5.706;2023-03-31T10:18:55;8.07;;;1.40;;
42714;SDS011;28351;51.480;5.706;2023-03-31T10:22:02;6.28;;;1.60;;
42714;SDS011;28351;51.480;5.706;2023-03-31T10:24:37;6.47;;;1.58;;
42714;SDS011;28351;51.480;5.706;2023-03-31T10:27:05;9.32;;;1.65;;
42714;SDS011;28351;51.480;5.706;2023-03-31T10:29:42;6.00;;;1.35;;
42714;SDS011;28351;51.480;5.706;2023-03-31T10:32:17;9.98;;;1.30;;
42714;SDS011;28351;51.480;5.706;2023-03-31T10:34:48;5.13;;;1.50;;
42714;SDS011;28351;51.480;5.706;2023-03-31T10:37:16;4.53;;;1.10;;
42714;SDS011;28351;51.480;5.706;2023-03-31T10:42:14;8.63;;;1.35;;
42714;SDS011;28351;51.480;5.706;2023-03-31T10:44:46;12.18;;;1.23;;
42714;SDS011;28351;51.480;5.706;2023-03-31T10:49:38;7.25;;;1.23;;
42714;SDS011;28351;51.480;5.706;2023-03-31T10:52:22;7.82;;;1.42;;
42714;SDS011;28351;51.480;5.706;2023-03-31T10:54:59;7.93;;;1.98;;
42714;SDS011;28351;51.480;5.706;2023-03-31T10:57:39;7.25;;;1.50;;
42714;SDS011;28351;51.480;5.706;2023-03-31T11:00:26;4.63;;;1.35;;
42714;SDS011;28351;51.480;5.706;2023-03-31T11:08:40;7.15;;;1.65;;
42714;SDS011;28351;51.480;5.706;2023-03-31T11:11:15;9.18;;;1.55;;
42714;SDS011;28351;51.480;5.706;2023-03-31T11:14:05;6.72;;;1.35;;
42714;SDS011;28351;51.480;5.706;2023-03-31T11:16:45;8.23;;;1.60;;
42714;SDS011;28351;51.480;5.706;2023-03-31T11:19:28;7.25;;;1.50;;
42714;SDS011;28351;51.480;5.706;2023-03-31T11:25:17;6.85;;;1.25;;
42714;SDS011;28351;51.480;5.706;2023-03-31T11:33:04;5.10;;;1.37;;
42714;SDS011;28351;51.480;5.706;2023-03-31T11:35:53;10.38;;;1.60;;
42714;SDS011;28351;51.480;5.706;2023-03-31T11:44:15;9.77;;;1.73;;
42714;SDS011;28351;51.480;5.706;2023-03-31T11:46:47;12.80;;;1.92;;
42714;SDS011;28351;51.480;5.706;2023-03-31T11:49:27;13.07;;;1.80;;
42714;SDS011;28351;51.480;5.706;2023-03-31T11:52:55;6.65;;;1.60;;
42714;SDS011;28351;51.480;5.706;2023-03-31T11:54:58;7.82;;;1.58;;
42714;SDS011;28351;51.480;5.706;2023-03-31T12:00:52;8.38;;;1.80;;
42714;SDS011;28351;51.480;5.706;2023-03-31T12:03:43;11.07;;;1.67;;
42714;SDS011;28351;51.480;5.706;2023-03-31T12:06:17;7.35;;;1.85;;
42714;SDS011;28351;51.480;5.706;2023-03-31T12:08:50;7.72;;;1.83;;
42714;SDS011;28351;51.480;5.706;2023-03-31T12:17:11;8.48;;;1.50;;
42714;SDS011;28351;51.480;5.706;2023-03-31T12:19:51;7.93;;;1.38;;
42714;SDS011;28351;51.480;5.706;2023-03-31T12:24:46;13.73;;;1.55;;
42714;SDS011;28351;51.480;5.706;2023-03-31T12:27:24;4.80;;;1.27;;
42714;SDS011;28351;51.480;5.706;2023-03-31T12:32:54;7.20;;;1.50;;
42714;SDS011;28351;51.480;5.706;2023-03-31T12:35:27;5.18;;;1.27;;
42714;SDS011;28351;51.480;5.706;2023-03-31T12:52:14;5.60;;;1.52;;
42714;SDS011;28351;51.480;5.706;2023-03-31T12:57:34;8.98;;;1.60;;
42714;SDS011;28351;51.480;5.706;2023-03-31T13:02:46;6.13;;;1.25;;
42714;SDS011;28351;51.480;5.706;2023-03-31T13:08:00;7.03;;;1.40;;
42714;SDS011;28351;51.480;5.706;2023-03-31T13:10:27;5.93;;;1.10;;
42714;SDS011;28351;51.480;5.706;2023-03-31T13:12:59;5.85;;;1.83;;
42714;SDS011;28351;51.480;5.706;2023-03-31T13:15:30;5.82;;;1.30;;
42714;SDS011;28351;51.480;5.706;2023-03-31T13:18:01;5.80;;;1.52;;
42714;SDS011;28351;51.480;5.706;2023-03-31T13:25:48;3.80;;;0.95;;
42714;SDS011;28351;51.480;5.706;2023-03-31T13:28:16;5.10;;;1.77;;
42714;SDS011;28351;51.480;5.706;2023-03-31T13:33:19;6.72;;;1.30;;
42714;SDS011;28351;51.480;5.706;2023-03-31T13:35:53;7.45;;;1.23;;
42714;SDS011;28351;51.480;5.706;2023-03-31T13:38:57;8.45;;;1.75;;
42714;SDS011;28351;51.480;5.706;2023-03-31T13:41:35;8.43;;;1.48;;
42714;SDS011;28351;51.480;5.706;2023-03-31T13:52:22;7.68;;;1.73;;
42714;SDS011;28351;51.480;5.706;2023-03-31T14:08:13;7.28;;;1.17;;
42714;SDS011;28351;51.480;5.706;2023-03-31T14:10:49;4.93;;;1.20;;
42714;SDS011;28351;51.480;5.706;2023-03-31T14:13:15;7.47;;;1.52;;
42714;SDS011;28351;51.480;5.706;2023-03-31T14:15:45;8.48;;;1.17;;
42714;SDS011;28351;51.480;5.706;2023-03-31T14:18:26;4.40;;;1.02;;
42714;SDS011;28351;51.480;5.706;2023-03-31T14:29:00;4.47;;;0.93;;
42714;SDS011;28351;51.480;5.706;2023-03-31T14:31:37;4.20;;;1.20;;
42714;SDS011;28351;51.480;5.706;2023-03-31T14:34:50;2.35;;;0.80;;
42714;SDS011;28351;51.480;5.706;2023-03-31T14:37:28;4.65;;;0.70;;
42714;SDS011;28351;51.480;5.706;2023-03-31T14:39:55;3.38;;;0.70;;
42714;SDS011;28351;51.480;5.706;2023-03-31T14:42:26;1.55;;;0.82;;
42714;SDS011;28351;51.480;5.706;2023-03-31T14:45:01;3.30;;;0.70;;
42714;SDS011;28351;51.480;5.706;2023-03-31T14:47:28;3.15;;;1.02;;
42714;SDS011;28351;51.480;5.706;2023-03-31T14:52:51;2.17;;;0.50;;
42714;SDS011;28351;51.480;5.706;2023-03-31T14:55:19;1.55;;;0.40;;
42714;SDS011;28351;51.480;5.706;2023-03-31T14:57:48;0.77;;;0.55;;
42714;SDS011;28351;51.480;5.706;2023-03-31T15:00:19;0.83;;;0.30;;
42714;SDS011;28351;51.480;5.706;2023-03-31T15:02:50;4.20;;;0.70;;
42714;SDS011;28351;51.480;5.706;2023-03-31T15:10:22;4.53;;;0.98;;
42714;SDS011;28351;51.480;5.706;2023-03-31T15:12:48;7.78;;;0.80;;
42714;SDS011;28351;51.480;5.706;2023-03-31T15:15:15;3.05;;;0.70;;
42714;SDS011;28351;51.480;5.706;2023-03-31T15:17:45;8.93;;;0.90;;
42714;SDS011;28351;51.480;5.706;2023-03-31T15:20:24;0.55;;;0.47;;
42714;SDS011;28351;51.480;5.706;2023-03-31T15:22:53;3.13;;;0.88;;
42714;SDS011;28351;51.480;5.706;2023-03-31T15:25:20;2.63;;;0.83;;
42714;SDS011;28351;51.480;5.706;2023-03-31T15:27:55;1.85;;;0.40;;
42714;SDS011;28351;51.480;5.706;2023-03-31T15:30:34;2.15;;;0.68;;
42714;SDS011;28351;51.480;5.706;2023-03-31T15:33:00;1.02;;;0.55;;
42714;SDS011;28351;51.480;5.706;2023-03-31T15:35:28;4.38;;;0.85;;
42714;SDS011;28351;51.480;5.706;2023-03-31T15:37:57;1.13;;;0.45;;
42714;SDS011;28351;51.480;5.706;2023-03-31T15:40:28;3.67;;;0.80;;
42714;SDS011;28351;51.480;5.706;2023-03-31T15:43:13;3.92;;;0.80;;
42714;SDS011;28351;51.480;5.706;2023-03-31T15:45:58;0.70;;;0.70;;
42714;SDS011;28351;51.480;5.706;2023-03-31T15:48:29;2.55;;;1.17;;
42714;SDS011;28351;51.480;5.706;2023-03-31T15:50:59;3.78;;;0.50;;
42714;SDS011;28351;51.480;5.706;2023-03-31T15:53:44;2.63;;;0.80;;
42714;SDS011;28351;51.480;5.706;2023-03-31T15:59:20;3.88;;;0.60;;
42714;SDS011;28351;51.480;5.706;2023-03-31T16:01:54;4.30;;;1.27;;
42714;SDS011;28351;51.480;5.706;2023-03-31T16:04:20;1.55;;;0.68;;
42714;SDS011;28351;51.480;5.706;2023-03-31T16:06:52;3.93;;;1.13;;
42714;SDS011;28351;51.480;5.706;2023-03-31T16:09:24;2.40;;;1.05;;
42714;SDS011;28351;51.480;5.706;2023-03-31T16:12:27;2.45;;;1.08;;
42714;SDS011;28351;51.480;5.706;2023-03-31T16:17:52;1.48;;;0.98;;
42714;SDS011;28351;51.480;5.706;2023-03-31T16:20:28;3.95;;;0.90;;
42714;SDS011;28351;51.480;5.706;2023-03-31T16:23:14;4.03;;;1.20;;
42714;SDS011;28351;51.480;5.706;2023-03-31T16:25:42;4.18;;;1.00;;
42714;SDS011;28351;51.480;5.706;2023-03-31T16:28:13;3.58;;;1.00;;
42714;SDS011;28351;51.480;5.706;2023-03-31T16:31:00;1.80;;;0.73;;
42714;SDS011;28351;51.480;5.706;2023-03-31T16:33:29;3.80;;;1.00;;
42714;SDS011;28351;51.480;5.706;2023-03-31T16:35:56;1.90;;;0.98;;
42714;SDS011;28351;51.480;5.706;2023-03-31T16:38:23;3.13;;;0.85;;
42714;SDS011;28351;51.480;5.706;2023-03-31T16:40:54;3.53;;;0.80;;
42714;SDS011;28351;51.480;5.706;2023-03-31T16:45:55;2.08;;;0.85;;
42714;SDS011;28351;51.480;5.706;2023-03-31T16:48:23;2.00;;;0.73;;
42714;SDS011;28351;51.480;5.706;2023-03-31T16:50:52;3.50;;;0.98;;
42714;SDS011;28351;51.480;5.706;2023-03-31T16:55:46;3.17;;;0.90;;
42714;SDS011;28351;51.480;5.706;2023-03-31T16:58:13;5.15;;;2.05;;
42714;SDS011;28351;51.480;5.706;2023-03-31T17:00:39;2.15;;;1.15;;
42714;SDS011;28351;51.480;5.706;2023-03-31T17:03:06;2.10;;;0.80;;
42714;SDS011;28351;51.480;5.706;2023-03-31T17:05:52;2.13;;;0.82;;
42714;SDS011;28351;51.480;5.706;2023-03-31T17:08:21;1.58;;;0.65;;
42714;SDS011;28351;51.480;5.706;2023-03-31T17:11:02;2.15;;;0.70;;
42714;SDS011;28351;51.480;5.706;2023-03-31T17:13:30;1.00;;;0.40;;
42714;SDS011;28351;51.480;5.706;2023-03-31T17:15:57;1.80;;;0.45;;
42714;SDS011;28351;51.480;5.706;2023-03-31T17:18:24;1.58;;;0.43;;
42714;SDS011;28351;51.480;5.706;2023-03-31T17:20:50;0.88;;;0.70;;
42714;SDS011;28351;51.480;5.706;2023-03-31T17:23:17;2.55;;;1.00;;
42714;SDS011;28351;51.480;5.706;2023-03-31T17:25:47;2.00;;;0.60;;
42714;SDS011;28351;51.480;5.706;2023-03-31T17:28:13;3.38;;;0.80;;
42714;SDS011;28351;51.480;5.706;2023-03-31T17:30:39;4.68;;;0.82;;
42714;SDS011;28351;51.480;5.706;2023-03-31T17:35:34;2.83;;;0.88;;
42714;SDS011;28351;51.480;5.706;2023-03-31T17:37:59;2.58;;;0.43;;
42714;SDS011;28351;51.480;5.706;2023-03-31T17:40:25;1.77;;;0.90;;
42714;SDS011;28351;51.480;5.706;2023-03-31T17:42:51;1.02;;;0.70;;
42714;SDS011;28351;51.480;5.706;2023-03-31T17:45:19;6.30;;;1.10;;
42714;SDS011;28351;51.480;5.706;2023-03-31T17:47:45;2.50;;;1.08;;
42714;SDS011;28351;51.480;5.706;2023-03-31T17:50:11;2.45;;;0.90;;
42714;SDS011;28351;51.480;5.706;2023-03-31T17:52:37;7.32;;;0.90;;
42714;SDS011;28351;51.480;5.706;2023-03-31T17:55:03;2.08;;;0.90;;
42714;SDS011;28351;51.480;5.706;2023-03-31T17:57:29;4.30;;;1.30;;
42714;SDS011;28351;51.480;5.706;2023-03-31T18:02:47;4.63;;;1.20;;
42714;SDS011;28351;51.480;5.706;2023-03-31T18:05:15;2.90;;;1.00;;
42714;SDS011;28351;51.480;5.706;2023-03-31T18:07:41;4.40;;;1.35;;
42714;SDS011;28351;51.480;5.706;2023-03-31T18:10:07;3.58;;;1.30;;
42714;SDS011;28351;51.480;5.706;2023-03-31T18:12:34;3.63;;;1.70;;
42714;SDS011;28351;51.480;5.706;2023-03-31T18:15:00;4.82;;;1.30;;
42714;SDS011;28351;51.480;5.706;2023-03-31T18:17:27;4.07;;;1.55;;
42714;SDS011;28351;51.480;5.706;2023-03-31T18:19:53;6.40;;;2.60;;
42714;SDS011;28351;51.480;5.706;2023-03-31T18:22:19;4.25;;;2.20;;
42714;SDS011;28351;51.480;5.706;2023-03-31T18:24:45;5.72;;;1.27;;